createdAt,value
2022-09-11T00:00:47.935Z,74.57
2022-09-11T00:01:47.977Z,74.77
2022-09-11T00:02:47.945Z,74.77
2022-09-11T00:03:47.905Z,74.67
2022-09-11T00:04:47.895Z,74.87
2022-09-11T00:05:47.879Z,74.98
2022-09-11T00:06:47.863Z,75.07
2022-09-11T00:07:47.856Z,75.28
2022-09-11T00:08:47.834Z,75.38
2022-09-11T00:09:47.833Z,75.18
2022-09-11T00:10:47.805Z,75.18
2022-09-11T00:11:47.823Z,75.31
2022-09-11T00:12:47.784Z,75.52
2022-09-11T00:13:47.774Z,75.72
2022-09-11T00:14:47.755Z,75.52
2022-09-11T00:15:47.785Z,75.62
2022-09-11T00:16:47.725Z,75.62
2022-09-11T00:17:47.714Z,75.72
2022-09-11T00:18:47.695Z,75.62
2022-09-11T00:19:47.702Z,75.82
2022-09-11T00:20:47.666Z,75.72
2022-09-11T00:21:47.665Z,75.72
2022-09-11T00:22:47.645Z,75.72
2022-09-11T00:23:47.635Z,75.82
2022-09-11T00:24:47.625Z,75.82
2022-09-11T00:25:47.603Z,76.03
2022-09-11T00:26:47.607Z,75.82
2022-09-11T00:27:47.574Z,75.82
2022-09-11T00:28:47.564Z,75.92
2022-09-11T00:29:47.563Z,75.82
2022-09-11T00:30:47.535Z,76.03
2022-09-11T00:31:47.582Z,76.12
2022-09-11T00:32:47.517Z,76.23
2022-09-11T00:33:47.504Z,76.23
2022-09-11T00:34:47.483Z,76.23
2022-09-11T00:35:47.465Z,76.23
2022-09-11T00:36:47.455Z,76.23
2022-09-11T00:37:47.445Z,76.03
2022-09-11T00:38:47.436Z,76.23
2022-09-11T00:39:47.454Z,76.36
2022-09-11T00:40:47.403Z,76.36
2022-09-11T00:41:47.406Z,76.26
2022-09-11T00:42:47.377Z,76.36
2022-09-11T00:43:47.373Z,76.46
2022-09-11T00:44:47.357Z,76.56
2022-09-11T00:45:47.385Z,76.36
2022-09-11T00:46:47.323Z,76.56
2022-09-11T00:47:47.305Z,76.46
2022-09-11T00:48:47.306Z,76.56
2022-09-11T00:49:47.284Z,76.56
2022-09-11T00:50:47.273Z,76.46
2022-09-11T00:51:47.254Z,76.46
2022-09-11T00:52:51.157Z,76.56
2022-09-11T00:53:48.244Z,76.46
2022-09-11T00:54:47.230Z,76.56
2022-09-11T00:55:47.213Z,76.56
2022-09-11T00:56:47.195Z,76.46
2022-09-11T00:57:47.172Z,76.67
2022-09-11T00:58:47.172Z,76.56
2022-09-11T00:59:47.154Z,76.46
2022-09-11T01:00:47.190Z,76.67
2022-09-11T01:01:47.161Z,76.56
2022-09-11T01:02:47.113Z,76.46
2022-09-11T01:03:47.162Z,76.77
2022-09-11T01:04:47.098Z,76.80
2022-09-11T01:05:47.074Z,76.80
2022-09-11T01:06:47.053Z,76.80
2022-09-11T01:07:47.044Z,76.90
2022-09-11T01:08:47.042Z,76.80
2022-09-11T01:09:47.021Z,77.01
2022-09-11T01:10:47.012Z,76.90
2022-09-11T01:11:46.990Z,76.80
2022-09-11T01:12:47.022Z,76.90
2022-09-11T01:13:46.982Z,76.80
2022-09-11T01:14:46.965Z,76.90
2022-09-11T01:15:46.941Z,76.80
2022-09-11T01:16:46.925Z,76.90
2022-09-11T01:17:46.902Z,76.90
2022-09-11T01:18:46.905Z,76.70
2022-09-11T01:19:46.882Z,76.70
2022-09-11T01:20:46.873Z,76.74
2022-09-11T01:21:46.851Z,76.84
2022-09-11T01:22:46.841Z,77.04
2022-09-11T01:23:46.833Z,76.74
2022-09-11T01:24:46.811Z,76.84
2022-09-11T01:25:46.809Z,76.74
2022-09-11T01:26:46.791Z,76.74
2022-09-11T01:27:46.771Z,76.74
2022-09-11T01:28:46.772Z,76.64
2022-09-11T01:29:46.751Z,76.64
2022-09-11T01:30:46.742Z,76.54
2022-09-11T01:31:46.786Z,76.54
2022-09-11T01:32:46.710Z,76.74
2022-09-11T01:33:46.701Z,76.84
2022-09-11T01:34:46.682Z,76.84
2022-09-11T01:35:46.670Z,76.78
2022-09-11T01:36:46.661Z,76.78
2022-09-11T01:37:46.641Z,76.57
2022-09-11T01:38:46.650Z,76.57
2022-09-11T01:39:46.662Z,76.67
2022-09-11T01:40:46.602Z,76.78
2022-09-11T01:41:46.590Z,76.78
2022-09-11T01:42:46.582Z,76.67
2022-09-11T01:43:46.560Z,76.87
2022-09-11T01:44:46.560Z,76.87
2022-09-11T01:45:46.554Z,76.67
2022-09-11T01:46:46.530Z,76.57
2022-09-11T01:47:46.509Z,76.67
2022-09-11T01:48:46.499Z,76.87
2022-09-11T01:49:46.490Z,76.78
2022-09-11T01:50:46.469Z,76.78
2022-09-11T01:51:46.459Z,76.91
2022-09-11T01:52:46.440Z,76.91
2022-09-11T01:53:50.029Z,76.81
2022-09-11T01:54:46.430Z,76.81
2022-09-11T01:55:46.399Z,76.71
2022-09-11T01:56:46.398Z,76.71
2022-09-11T01:57:46.378Z,76.81
2022-09-11T01:58:46.364Z,76.81
2022-09-11T01:59:46.369Z,76.81
2022-09-11T02:00:46.393Z,76.91
2022-09-11T02:01:46.408Z,77.01
2022-09-11T02:02:46.318Z,77.01
2022-09-11T02:03:46.300Z,76.81
2022-09-11T02:04:46.308Z,76.81
2022-09-11T02:05:46.268Z,76.91
2022-09-11T02:06:46.266Z,76.95
2022-09-11T02:07:46.238Z,77.05
2022-09-11T02:08:46.230Z,76.95
2022-09-11T02:09:46.229Z,76.85
2022-09-11T02:10:46.208Z,76.95
2022-09-11T02:11:46.197Z,76.85
2022-09-11T02:12:46.178Z,76.85
2022-09-11T02:13:46.167Z,76.95
2022-09-11T02:14:46.175Z,77.15
2022-09-11T02:15:46.138Z,77.25
2022-09-11T02:16:46.129Z,77.15
2022-09-11T02:17:46.107Z,77.15
2022-09-11T02:18:46.100Z,77.25
2022-09-11T02:19:46.099Z,77.15
2022-09-11T02:20:46.078Z,77.15
2022-09-11T02:21:46.057Z,77.25
2022-09-11T02:22:46.047Z,77.45
2022-09-11T02:23:46.034Z,77.45
2022-09-11T02:24:46.042Z,77.97
2022-09-11T02:25:46.010Z,78.10
2022-09-11T02:26:45.997Z,78.10
2022-09-11T02:27:45.986Z,78.30
2022-09-11T02:28:45.967Z,78.30
2022-09-11T02:29:45.956Z,78.41
2022-09-11T02:30:45.938Z,78.51
2022-09-11T02:31:45.962Z,78.41
2022-09-11T02:32:45.917Z,78.81
2022-09-11T02:33:45.903Z,79.02
2022-09-11T02:34:47.109Z,78.91
2022-09-11T02:35:45.867Z,78.91
2022-09-11T02:36:45.866Z,79.22
2022-09-11T02:37:45.847Z,79.63
2022-09-11T02:38:45.837Z,79.83
2022-09-11T02:39:45.863Z,79.93
2022-09-11T02:40:45.808Z,80.33
2022-09-11T02:41:45.807Z,80.33
2022-09-11T02:42:45.816Z,80.24
2022-09-11T02:43:45.777Z,80.13
2022-09-11T02:44:45.766Z,80.13
2022-09-11T02:45:45.755Z,80.19
2022-09-11T02:46:45.736Z,80.30
2022-09-11T02:47:45.715Z,80.24
2022-09-11T02:48:45.713Z,80.10
2022-09-11T02:49:45.710Z,80.30
2022-09-11T02:50:45.676Z,80.33
2022-09-11T02:51:45.656Z,80.30
2022-09-11T02:52:45.646Z,80.30
2022-09-11T02:53:45.673Z,80.50
2022-09-11T02:54:45.642Z,80.40
2022-09-11T02:55:45.607Z,80.30
2022-09-11T02:56:45.595Z,80.30
2022-09-11T02:57:45.608Z,80.50
2022-09-11T02:58:45.585Z,80.40
2022-09-11T02:59:45.556Z,80.40
2022-09-11T03:00:45.558Z,80.30
2022-09-11T03:01:45.560Z,80.40
2022-09-11T03:02:45.516Z,80.30
2022-09-11T03:03:46.213Z,80.10
2022-09-11T03:04:45.504Z,80.19
2022-09-11T03:05:45.473Z,80.40
2022-09-11T03:06:45.465Z,80.60
2022-09-11T03:07:45.450Z,80.60
2022-09-11T03:08:45.439Z,80.50
2022-09-11T03:09:45.425Z,80.40
2022-09-11T03:10:45.406Z,80.30
2022-09-11T03:11:45.491Z,80.30
2022-09-11T03:12:45.384Z,80.40
2022-09-11T03:13:45.365Z,80.30
2022-09-11T03:14:45.374Z,80.30
2022-09-11T03:15:45.335Z,80.30
2022-09-11T03:16:45.324Z,80.30
2022-09-11T03:17:45.316Z,80.71
2022-09-11T03:18:45.307Z,80.71
2022-09-11T03:19:45.293Z,80.60
2022-09-11T03:20:45.284Z,80.91
2022-09-11T03:21:45.264Z,80.60
2022-09-11T03:22:45.244Z,80.40
2022-09-11T03:23:45.234Z,80.50
2022-09-11T03:24:45.234Z,80.40
2022-09-11T03:25:45.205Z,80.71
2022-09-11T03:26:45.200Z,80.71
2022-09-11T03:27:45.182Z,80.60
2022-09-11T03:28:45.180Z,80.40
2022-09-11T03:29:45.164Z,80.30
2022-09-11T03:30:45.143Z,80.19
2022-09-11T03:31:45.170Z,80.30
2022-09-11T03:32:45.130Z,80.30
2022-09-11T03:33:45.103Z,80.19
2022-09-11T03:34:45.113Z,80.30
2022-09-11T03:35:45.073Z,80.40
2022-09-11T03:36:45.703Z,80.60
2022-09-11T03:37:45.043Z,80.60
2022-09-11T03:38:45.044Z,80.71
2022-09-11T03:39:45.055Z,80.71
2022-09-11T03:40:45.014Z,80.71
2022-09-11T03:41:44.993Z,80.60
2022-09-11T03:42:44.984Z,80.71
2022-09-11T03:43:44.973Z,80.60
2022-09-11T03:44:44.963Z,80.71
2022-09-11T03:45:45.053Z,80.60
2022-09-11T03:46:44.932Z,80.71
2022-09-11T03:47:44.912Z,80.60
2022-09-11T03:48:44.902Z,80.60
2022-09-11T03:49:44.902Z,80.80
2022-09-11T03:50:44.881Z,80.60
2022-09-11T03:51:44.863Z,80.40
2022-09-11T03:52:44.852Z,80.40
2022-09-11T03:53:44.833Z,80.30
2022-09-11T03:54:44.843Z,80.40
2022-09-11T03:55:44.812Z,80.60
2022-09-11T03:56:44.802Z,80.30
2022-09-11T03:57:44.782Z,80.40
2022-09-11T03:58:44.772Z,80.50
2022-09-11T03:59:44.761Z,80.40
2022-09-11T04:00:44.773Z,80.40
2022-09-11T04:01:44.771Z,80.30
2022-09-11T04:02:44.722Z,80.30
2022-09-11T04:03:44.701Z,80.19
2022-09-11T04:04:44.713Z,80.30
2022-09-11T04:05:44.676Z,80.30
2022-09-11T04:06:44.661Z,80.10
2022-09-11T04:07:44.671Z,80.19
2022-09-11T04:08:44.641Z,80.19
2022-09-11T04:09:44.640Z,80.10
2022-09-11T04:10:44.611Z,80.19
2022-09-11T04:11:44.591Z,80.50
2022-09-11T04:12:44.591Z,80.40
2022-09-11T04:13:44.561Z,80.50
2022-09-11T04:14:44.572Z,80.54
2022-09-11T04:15:44.541Z,80.44
2022-09-11T04:16:44.551Z,80.64
2022-09-11T04:17:44.510Z,80.71
2022-09-11T04:18:44.500Z,80.74
2022-09-11T04:19:44.498Z,80.64
2022-09-11T04:20:44.480Z,80.54
2022-09-11T04:21:44.525Z,80.64
2022-09-11T04:22:44.451Z,80.54
2022-09-11T04:23:44.441Z,80.44
2022-09-11T04:24:44.432Z,80.33
2022-09-11T04:25:44.410Z,80.33
2022-09-11T04:26:44.399Z,80.33
2022-09-11T04:27:44.379Z,80.24
2022-09-11T04:28:44.370Z,80.24
2022-09-11T04:29:44.360Z,80.33
2022-09-11T04:30:44.341Z,80.33
2022-09-11T04:31:44.347Z,80.54
2022-09-11T04:32:44.320Z,80.64
2022-09-11T04:33:44.311Z,80.54
2022-09-11T04:34:44.299Z,80.44
2022-09-11T04:35:44.279Z,80.44
2022-09-11T04:36:44.259Z,80.64
2022-09-11T04:37:44.256Z,80.54
2022-09-11T04:38:44.231Z,80.54
2022-09-11T04:39:44.263Z,80.74
2022-09-11T04:40:44.210Z,80.64
2022-09-11T04:41:44.200Z,80.64
2022-09-11T04:42:44.178Z,80.64
2022-09-11T04:43:44.210Z,80.64
2022-09-11T04:44:44.150Z,80.64
2022-09-11T04:45:44.193Z,80.74
2022-09-11T04:46:44.137Z,80.64
2022-09-11T04:47:44.118Z,80.64
2022-09-11T04:48:44.110Z,80.54
2022-09-11T04:49:44.108Z,80.44
2022-09-11T04:50:44.080Z,80.33
2022-09-11T04:51:44.070Z,80.44
2022-09-11T04:52:44.049Z,80.54
2022-09-11T04:53:44.048Z,80.54
2022-09-11T04:54:44.018Z,80.64
2022-09-11T04:55:44.016Z,80.54
2022-09-11T04:56:43.997Z,80.54
2022-09-11T04:57:43.982Z,80.64
2022-09-11T04:58:43.996Z,80.74
2022-09-11T04:59:43.968Z,80.74
2022-09-11T05:00:44.016Z,80.84
2022-09-11T05:01:44.004Z,80.74
2022-09-11T05:02:43.907Z,80.74
2022-09-11T05:03:43.986Z,80.74
2022-09-11T05:04:43.888Z,80.74
2022-09-11T05:05:43.885Z,80.74
2022-09-11T05:06:43.858Z,80.84
2022-09-11T05:07:43.867Z,80.74
2022-09-11T05:08:43.868Z,80.84
2022-09-11T05:09:43.883Z,80.94
2022-09-11T05:10:43.837Z,80.94
2022-09-11T05:11:43.801Z,80.94
2022-09-11T05:12:43.777Z,81.05
2022-09-11T05:13:43.806Z,81.05
2022-09-11T05:14:43.778Z,81.05
2022-09-11T05:15:43.780Z,81.45
2022-09-11T05:16:43.768Z,81.56
2022-09-11T05:17:43.716Z,81.45
2022-09-11T05:18:43.720Z,81.35
2022-09-11T05:19:43.697Z,81.15
2022-09-11T05:20:43.686Z,81.35
2022-09-11T05:21:43.666Z,81.25
2022-09-11T05:22:43.652Z,81.35
2022-09-11T05:23:43.732Z,81.25
2022-09-11T05:24:43.624Z,81.35
2022-09-11T05:25:43.615Z,81.25
2022-09-11T05:26:43.596Z,81.35
2022-09-11T05:27:43.587Z,81.86
2022-09-11T05:28:43.586Z,82.23
2022-09-11T05:29:43.557Z,82.12
2022-09-11T05:30:43.545Z,81.72
2022-09-11T05:31:43.611Z,81.72
2022-09-11T05:32:43.517Z,81.52
2022-09-11T05:33:43.605Z,81.41
2022-09-11T05:34:43.487Z,81.62
2022-09-11T05:35:43.476Z,81.92
2022-09-11T05:36:43.463Z,81.72
2022-09-11T05:37:43.455Z,81.82
2022-09-11T05:38:43.445Z,82.03
2022-09-11T05:39:43.465Z,81.92
2022-09-11T05:40:43.406Z,81.82
2022-09-11T05:41:43.405Z,81.62
2022-09-11T05:42:43.390Z,81.82
2022-09-11T05:43:43.548Z,81.82
2022-09-11T05:44:43.354Z,81.62
2022-09-11T05:45:43.363Z,81.72
2022-09-11T05:46:43.332Z,81.92
2022-09-11T05:47:43.318Z,81.92
2022-09-11T05:48:43.326Z,81.92
2022-09-11T05:49:43.295Z,82.43
2022-09-11T05:50:43.297Z,82.23
2022-09-11T05:51:43.267Z,81.92
2022-09-11T05:52:43.244Z,81.82
2022-09-11T05:53:43.345Z,81.92
2022-09-11T05:54:43.225Z,82.03
2022-09-11T05:55:43.215Z,81.92
2022-09-11T05:56:43.194Z,82.12
2022-09-11T05:57:43.189Z,82.33
2022-09-11T05:58:43.197Z,82.43
2022-09-11T05:59:43.180Z,82.43
2022-09-11T06:00:43.144Z,82.64
2022-09-11T06:01:43.137Z,82.84
2022-09-11T06:02:43.145Z,82.94
2022-09-11T06:03:43.212Z,82.53
2022-09-11T06:04:43.115Z,82.33
2022-09-11T06:05:43.084Z,82.64
2022-09-11T06:06:43.063Z,82.84
2022-09-11T06:07:43.058Z,83.04
2022-09-11T06:08:43.065Z,83.14
2022-09-11T06:09:43.025Z,83.34
2022-09-11T06:10:43.023Z,83.24
2022-09-11T06:11:43.004Z,83.14
2022-09-11T06:12:42.983Z,83.24
2022-09-11T06:13:43.213Z,83.14
2022-09-11T06:14:42.953Z,83.24
2022-09-11T06:15:46.970Z,83.34
2022-09-11T06:16:43.238Z,83.45
2022-09-11T06:17:42.954Z,83.31
2022-09-11T06:18:42.924Z,83.40
2022-09-11T06:19:43.044Z,83.40
2022-09-11T06:20:43.045Z,83.51
2022-09-11T06:21:43.241Z,83.51
2022-09-11T06:22:42.853Z,83.51
2022-09-11T06:23:43.014Z,83.61
2022-09-11T06:24:42.874Z,83.71
2022-09-11T06:25:42.813Z,83.81
2022-09-11T06:26:42.793Z,83.61
2022-09-11T06:27:42.793Z,83.31
2022-09-11T06:28:42.782Z,83.31
2022-09-11T06:29:42.782Z,83.20
2022-09-11T06:30:42.792Z,83.31
2022-09-11T06:31:42.742Z,83.61
2022-09-11T06:32:42.724Z,83.61
2022-09-11T06:33:42.771Z,83.71
2022-09-11T06:34:42.701Z,83.71
2022-09-11T06:35:42.682Z,83.81
2022-09-11T06:36:43.684Z,83.91
2022-09-11T06:37:42.661Z,83.91
2022-09-11T06:38:42.652Z,84.01
2022-09-11T06:39:42.696Z,84.22
2022-09-11T06:40:42.611Z,84.01
2022-09-11T06:41:42.602Z,83.81
2022-09-11T06:42:42.590Z,83.91
2022-09-11T06:43:42.744Z,84.01
2022-09-11T06:44:42.572Z,84.01
2022-09-11T06:45:42.643Z,84.08
2022-09-11T06:46:42.532Z,83.98
2022-09-11T06:47:42.525Z,84.12
2022-09-11T06:48:42.513Z,84.18
2022-09-11T06:49:42.502Z,84.18
2022-09-11T06:50:42.479Z,84.18
2022-09-11T06:51:42.471Z,84.28
2022-09-11T06:52:42.451Z,84.18
2022-09-11T06:53:42.710Z,84.38
2022-09-11T06:54:42.432Z,84.38
2022-09-11T06:55:42.412Z,84.28
2022-09-11T06:56:42.399Z,84.38
2022-09-11T06:57:42.392Z,84.38
2022-09-11T06:58:42.392Z,84.48
2022-09-11T06:59:42.369Z,84.48
2022-09-11T07:00:42.342Z,84.58
2022-09-11T07:01:42.393Z,84.58
2022-09-11T07:02:42.351Z,84.58
2022-09-11T07:03:42.428Z,84.48
2022-09-11T07:04:42.301Z,84.58
2022-09-11T07:05:42.282Z,84.48
2022-09-11T07:06:42.262Z,84.58
2022-09-11T07:07:42.251Z,84.69
2022-09-11T07:08:42.261Z,84.78
2022-09-11T07:09:42.231Z,84.75
2022-09-11T07:10:42.210Z,84.64
2022-09-11T07:11:42.201Z,84.55
2022-09-11T07:12:42.221Z,84.64
2022-09-11T07:13:42.215Z,84.64
2022-09-11T07:14:42.170Z,84.64
2022-09-11T07:15:42.151Z,84.55
2022-09-11T07:16:42.175Z,84.55
2022-09-11T07:17:42.126Z,84.75
2022-09-11T07:18:42.125Z,84.75
2022-09-11T07:19:42.101Z,84.64
2022-09-11T07:20:42.071Z,84.75
2022-09-11T07:21:42.070Z,84.75
2022-09-11T07:22:42.073Z,84.85
2022-09-11T07:23:42.188Z,84.75
2022-09-11T07:24:42.041Z,84.61
2022-09-11T07:25:42.020Z,84.61
2022-09-11T07:26:42.001Z,84.61
2022-09-11T07:27:42.003Z,84.41
2022-09-11T07:28:41.990Z,84.41
2022-09-11T07:29:41.983Z,84.41
2022-09-11T07:30:44.260Z,84.50
2022-09-11T07:31:44.420Z,84.50
2022-09-11T07:32:49.768Z,84.50
2022-09-11T07:33:42.042Z,84.61
2022-09-11T07:34:42.399Z,84.61
2022-09-11T07:35:41.880Z,84.61
2022-09-11T07:36:41.880Z,84.50
2022-09-11T07:37:41.857Z,84.50
2022-09-11T07:38:41.851Z,84.50
2022-09-11T07:39:41.874Z,84.41
2022-09-11T07:40:41.814Z,84.41
2022-09-11T07:41:41.803Z,84.41
2022-09-11T07:42:41.792Z,84.41
2022-09-11T07:43:41.853Z,84.30
2022-09-11T07:44:41.768Z,84.36
2022-09-11T07:45:41.777Z,84.47
2022-09-11T07:46:41.728Z,84.47
2022-09-11T07:47:41.719Z,84.36
2022-09-11T07:48:41.709Z,84.27
2022-09-11T07:49:41.701Z,84.27
2022-09-11T07:50:41.702Z,84.27
2022-09-11T07:51:41.698Z,84.06
2022-09-11T07:52:41.648Z,84.06
2022-09-11T07:53:41.706Z,84.16
2022-09-11T07:54:41.632Z,84.16
2022-09-11T07:55:41.610Z,84.36
2022-09-11T07:56:41.594Z,84.47
2022-09-11T07:57:41.588Z,84.47
2022-09-11T07:58:41.589Z,84.47
2022-09-11T07:59:41.568Z,84.47
2022-09-11T08:00:41.539Z,84.47
2022-09-11T08:01:41.535Z,84.56
2022-09-11T08:02:41.547Z,84.47
2022-09-11T08:03:41.550Z,84.56
2022-09-11T08:04:41.490Z,84.56
2022-09-11T08:05:41.479Z,84.47
2022-09-11T08:06:41.488Z,84.47
2022-09-11T08:07:41.459Z,84.56
2022-09-11T08:08:41.438Z,84.36
2022-09-11T08:09:41.438Z,84.36
2022-09-11T08:10:41.408Z,84.47
2022-09-11T08:11:41.401Z,84.56
2022-09-11T08:12:41.380Z,84.56
2022-09-11T08:13:41.424Z,84.56
2022-09-11T08:14:41.360Z,84.47
2022-09-11T08:15:41.346Z,84.36
2022-09-11T08:16:41.358Z,84.36
2022-09-11T08:17:41.390Z,84.33
2022-09-11T08:18:41.308Z,84.42
2022-09-11T08:19:41.303Z,84.53
2022-09-11T08:20:41.288Z,84.53
2022-09-11T08:21:41.277Z,84.63
2022-09-11T08:22:41.248Z,84.73
2022-09-11T08:23:41.263Z,84.73
2022-09-11T08:24:41.228Z,84.83
2022-09-11T08:25:41.208Z,84.83
2022-09-11T08:26:42.970Z,84.93
2022-09-11T08:27:41.193Z,84.93
2022-09-11T08:28:41.169Z,84.93
2022-09-11T08:29:41.159Z,84.93
2022-09-11T08:30:41.138Z,84.89
2022-09-11T08:31:41.130Z,84.99
2022-09-11T08:32:41.121Z,85.10
2022-09-11T08:33:41.175Z,84.99
2022-09-11T08:34:41.097Z,85.10
2022-09-11T08:35:41.087Z,85.10
2022-09-11T08:36:41.057Z,85.10
2022-09-11T08:37:41.059Z,85.10
2022-09-11T08:38:41.038Z,85.19
2022-09-11T08:39:41.060Z,85.19
2022-09-11T08:40:41.007Z,85.05
2022-09-11T08:41:40.999Z,85.05
2022-09-11T08:42:40.984Z,85.05
2022-09-11T08:43:41.078Z,85.16
2022-09-11T08:44:49.655Z,85.05
2022-09-11T08:45:48.558Z,85.05
2022-09-11T08:46:40.929Z,85.05
2022-09-11T08:47:40.908Z,85.05
2022-09-11T08:48:40.908Z,84.95
2022-09-11T08:49:40.910Z,84.91
2022-09-11T08:50:40.879Z,84.91
2022-09-11T08:51:40.869Z,84.91
2022-09-11T08:52:40.867Z,84.91
2022-09-11T08:53:40.920Z,84.91
2022-09-11T08:54:40.843Z,84.81
2022-09-11T08:55:40.822Z,84.81
2022-09-11T08:56:40.809Z,84.81
2022-09-11T08:57:40.808Z,84.81
2022-09-11T08:58:40.779Z,84.81
2022-09-11T08:59:40.801Z,84.77
2022-09-11T09:00:40.754Z,84.77
2022-09-11T09:01:40.801Z,84.77
2022-09-11T09:02:40.720Z,84.67
2022-09-11T09:03:40.720Z,84.67
2022-09-11T09:04:40.713Z,84.57
2022-09-11T09:05:40.688Z,84.47
2022-09-11T09:06:40.667Z,84.47
2022-09-11T09:07:40.663Z,84.47
2022-09-11T09:08:40.655Z,84.47
2022-09-11T09:09:40.638Z,84.47
2022-09-11T09:10:40.618Z,84.47
2022-09-11T09:11:40.624Z,84.43
2022-09-11T09:12:40.613Z,84.43
2022-09-11T09:13:40.578Z,84.33
2022-09-11T09:14:40.590Z,84.33
2022-09-11T09:15:40.609Z,84.23
2022-09-11T09:16:40.550Z,84.23
2022-09-11T09:17:40.521Z,84.19
2022-09-11T09:18:40.538Z,84.09
2022-09-11T09:19:40.506Z,84.09
2022-09-11T09:20:40.486Z,83.98
2022-09-11T09:21:40.478Z,83.95
2022-09-11T09:22:40.486Z,83.84
2022-09-11T09:23:40.470Z,83.84
2022-09-11T09:24:40.439Z,83.91
2022-09-11T09:25:40.418Z,83.80
2022-09-11T09:26:40.428Z,83.80
2022-09-11T09:27:40.391Z,83.56
2022-09-11T09:28:40.389Z,83.46
2022-09-11T09:29:40.383Z,83.36
2022-09-11T09:30:40.358Z,83.26
2022-09-11T09:31:40.336Z,83.02
2022-09-11T09:32:40.331Z,82.92
2022-09-11T09:33:40.308Z,82.82
2022-09-11T09:34:40.337Z,82.71
2022-09-11T09:35:40.283Z,82.62
2022-09-11T09:36:40.283Z,82.51
2022-09-11T09:37:40.270Z,82.42
2022-09-11T09:38:40.245Z,82.42
2022-09-11T09:39:40.303Z,82.42
2022-09-11T09:40:40.212Z,82.28
2022-09-11T09:41:40.303Z,82.18
2022-09-11T09:42:40.436Z,82.18
2022-09-11T09:43:40.324Z,82.07
2022-09-11T09:44:40.188Z,81.98
2022-09-11T09:45:40.248Z,81.87
2022-09-11T09:46:40.154Z,81.77
2022-09-11T09:47:40.142Z,81.77
2022-09-11T09:48:40.193Z,81.67
2022-09-11T09:49:40.218Z,81.63
2022-09-11T09:50:40.079Z,81.63
2022-09-11T09:51:40.079Z,81.53
2022-09-11T09:52:40.058Z,81.53
2022-09-11T09:53:40.043Z,81.43
2022-09-11T09:54:40.031Z,81.39
2022-09-11T09:55:40.068Z,81.39
2022-09-11T09:56:40.009Z,81.39
2022-09-11T09:57:40.040Z,81.39
2022-09-11T09:58:40.081Z,81.26
2022-09-11T09:59:39.959Z,81.15
2022-09-11T10:00:39.988Z,81.05
2022-09-11T10:01:40.009Z,80.91
2022-09-11T10:02:40.077Z,80.91
2022-09-11T10:03:39.952Z,80.77
2022-09-11T10:04:39.956Z,80.74
2022-09-11T10:05:39.904Z,80.50
2022-09-11T10:06:39.863Z,79.82
2022-09-11T10:07:39.886Z,79.08
2022-09-11T10:08:39.956Z,78.78
2022-09-11T10:09:39.838Z,78.24
2022-09-11T10:10:39.831Z,77.80
2022-09-11T10:11:39.790Z,77.47
2022-09-11T10:12:39.870Z,76.93
2022-09-11T10:13:39.795Z,76.29
2022-09-11T10:14:55.190Z,75.62
2022-09-11T10:15:40.832Z,74.79
2022-09-11T10:16:39.745Z,73.85
2022-09-11T10:17:39.770Z,72.92
2022-09-11T10:18:39.794Z,72.38
2022-09-11T10:19:39.715Z,72.08
2022-09-11T10:20:39.723Z,71.78
2022-09-11T10:21:39.669Z,71.48
2022-09-11T10:22:39.818Z,71.29
2022-09-11T10:23:39.655Z,71.29
2022-09-11T10:24:39.648Z,71.29
2022-09-11T10:25:39.608Z,71.05
2022-09-11T10:26:39.601Z,70.65
2022-09-11T10:27:39.593Z,70.59
2022-09-11T10:28:39.714Z,70.59
2022-09-11T10:29:39.589Z,70.86
2022-09-11T10:30:39.568Z,70.52
2022-09-11T10:31:39.538Z,69.99
2022-09-11T10:32:39.542Z,69.53
2022-09-11T10:33:39.510Z,69.39
2022-09-11T10:34:39.520Z,68.13
2022-09-11T10:35:39.508Z,67.50
2022-09-11T10:36:39.504Z,67.18
2022-09-11T10:37:39.471Z,66.45
2022-09-11T10:38:41.597Z,65.72
2022-09-11T10:39:39.493Z,66.02
2022-09-11T10:40:39.431Z,64.73
2022-09-11T10:41:39.437Z,64.83
2022-09-11T10:42:39.412Z,65.06
2022-09-11T10:43:39.373Z,64.86
2022-09-11T10:44:39.369Z,64.59
2022-09-11T10:45:39.379Z,64.73
2022-09-11T10:46:42.100Z,64.83
2022-09-11T10:47:39.351Z,64.76
2022-09-11T10:48:39.415Z,65.19
2022-09-11T10:49:39.345Z,65.19
2022-09-11T10:50:39.310Z,65.52
2022-09-11T10:51:39.294Z,65.81
2022-09-11T10:52:39.262Z,66.14
2022-09-11T10:53:39.241Z,66.24
2022-09-11T10:54:39.280Z,66.27
2022-09-11T10:55:39.241Z,66.38
2022-09-11T10:56:39.228Z,66.77
2022-09-11T10:57:39.190Z,66.91
2022-09-11T10:58:39.179Z,67.20
2022-09-11T10:59:39.160Z,67.40
2022-09-11T11:00:39.181Z,67.50
2022-09-11T11:01:39.202Z,67.50
2022-09-11T11:02:39.131Z,67.50
2022-09-11T11:03:39.130Z,67.60
2022-09-11T11:04:39.116Z,67.50
2022-09-11T11:05:39.101Z,67.50
2022-09-11T11:06:39.072Z,67.40
2022-09-11T11:07:39.052Z,67.30
2022-09-11T11:08:39.042Z,67.40
2022-09-11T11:09:39.043Z,67.50
2022-09-11T11:10:39.033Z,67.20
2022-09-11T11:11:39.001Z,67.07
2022-09-11T11:12:39.011Z,66.97
2022-09-11T11:13:38.983Z,66.64
2022-09-11T11:14:38.998Z,66.64
2022-09-11T11:15:39.017Z,66.51
2022-09-11T11:16:38.934Z,66.51
2022-09-11T11:17:38.923Z,65.68
2022-09-11T11:18:38.936Z,65.78
2022-09-11T11:19:38.891Z,65.75
2022-09-11T11:20:38.882Z,64.86
2022-09-11T11:21:38.864Z,64.86
2022-09-11T11:22:38.870Z,65.12
2022-09-11T11:23:38.832Z,64.83
2022-09-11T11:24:38.834Z,64.76
2022-09-11T11:25:38.822Z,64.56
2022-09-11T11:26:38.878Z,64.26
2022-09-11T11:27:38.873Z,64.26
2022-09-11T11:28:38.819Z,64.46
2022-09-11T11:29:38.766Z,64.46
2022-09-11T11:30:38.768Z,64.56
2022-09-11T11:31:42.496Z,64.23
2022-09-11T11:32:39.739Z,64.33
2022-09-11T11:33:38.746Z,64.30
2022-09-11T11:34:38.716Z,64.40
2022-09-11T11:35:38.734Z,63.93
2022-09-11T11:36:38.698Z,63.93
2022-09-11T11:37:38.677Z,63.83
2022-09-11T11:38:38.689Z,63.83
2022-09-11T11:39:38.678Z,63.01
2022-09-11T11:40:38.644Z,63.01
2022-09-11T11:41:38.610Z,62.68
2022-09-11T11:42:38.593Z,62.58
2022-09-11T11:43:38.563Z,62.35
2022-09-11T11:44:38.565Z,61.96
2022-09-11T11:45:38.605Z,62.23
2022-09-11T11:46:38.551Z,61.63
2022-09-11T11:47:38.580Z,61.63
2022-09-11T11:48:38.515Z,61.33
2022-09-11T11:49:38.506Z,60.94
2022-09-11T11:50:38.517Z,61.13
2022-09-11T11:51:38.475Z,61.16
2022-09-11T11:52:38.456Z,61.56
2022-09-11T11:53:38.446Z,61.36
2022-09-11T11:54:38.430Z,61.46
2022-09-11T11:55:38.420Z,61.16
2022-09-11T11:56:38.411Z,61.49
2022-09-11T11:57:38.397Z,61.49
2022-09-11T11:58:38.377Z,61.69
2022-09-11T11:59:38.355Z,61.49
2022-09-11T12:00:38.371Z,61.19
2022-09-11T12:01:38.365Z,61.29
2022-09-11T12:02:38.335Z,61.59
2022-09-11T12:03:38.373Z,61.10
2022-09-11T12:04:38.298Z,60.86
2022-09-11T12:05:38.305Z,60.37
2022-09-11T12:06:38.296Z,60.24
2022-09-11T12:07:38.279Z,60.24
2022-09-11T12:08:38.245Z,59.72
2022-09-11T12:09:38.225Z,59.69
2022-09-11T12:10:38.277Z,59.19
2022-09-11T12:11:38.227Z,58.97
2022-09-11T12:12:38.248Z,58.67
2022-09-11T12:13:38.190Z,58.64
2022-09-11T12:14:38.176Z,58.34
2022-09-11T12:15:38.191Z,58.64
2022-09-11T12:16:38.198Z,58.05
2022-09-11T12:17:38.135Z,57.65
2022-09-11T12:18:38.115Z,57.56
2022-09-11T12:19:38.104Z,57.26
2022-09-11T12:20:38.127Z,57.35
2022-09-11T12:21:38.109Z,57.65
2022-09-11T12:22:38.066Z,58.05
2022-09-11T12:23:38.051Z,58.05
2022-09-11T12:24:38.028Z,57.95
2022-09-11T12:25:38.020Z,57.95
2022-09-11T12:26:38.011Z,57.85
2022-09-11T12:27:38.004Z,57.98
2022-09-11T12:28:38.025Z,58.18
2022-09-11T12:29:37.969Z,57.78
2022-09-11T12:30:37.961Z,57.48
2022-09-11T12:31:37.989Z,57.85
2022-09-11T12:32:37.957Z,57.65
2022-09-11T12:33:37.911Z,57.43
2022-09-11T12:34:37.904Z,57.23
2022-09-11T12:35:37.909Z,56.81
2022-09-11T12:36:37.899Z,56.12
2022-09-11T12:37:37.876Z,55.99
2022-09-11T12:38:37.857Z,55.99
2022-09-11T12:39:37.944Z,55.99
2022-09-11T12:40:37.860Z,55.47
2022-09-11T12:41:37.841Z,55.27
2022-09-11T12:42:37.810Z,55.05
2022-09-11T12:43:37.783Z,54.65
2022-09-11T12:44:37.781Z,54.85
2022-09-11T12:45:37.794Z,54.85
2022-09-11T12:46:37.750Z,54.63
2022-09-11T12:47:37.720Z,54.33
2022-09-11T12:48:37.726Z,53.84
2022-09-11T12:49:37.748Z,53.94
2022-09-11T12:50:37.729Z,53.94
2022-09-11T12:51:37.703Z,53.54
2022-09-11T12:52:37.694Z,53.64